createdAt,value
2023-04-15T00:01:45.591Z,5.12
2023-04-15T00:04:13.447Z,5.11
2023-04-15T00:06:41.797Z,5.12
2023-04-15T00:09:09.472Z,5.08
2023-04-15T00:11:37.081Z,5.04
2023-04-15T00:14:04.722Z,4.99
2023-04-15T00:16:32.431Z,4.96
2023-04-15T00:19:01.669Z,4.93
2023-04-15T00:21:29.433Z,4.94
2023-04-15T00:23:57.406Z,4.94
2023-04-15T00:26:25.076Z,4.96
2023-04-15T00:28:53.078Z,4.95
2023-04-15T00:31:20.969Z,4.94
2023-04-15T00:33:49.475Z,4.94
2023-04-15T00:36:18.605Z,4.94
2023-04-15T00:38:46.614Z,4.93
2023-04-15T00:41:14.295Z,4.92
2023-04-15T00:43:42.094Z,4.91
2023-04-15T00:46:10.645Z,4.88
2023-04-15T00:48:38.985Z,4.82
2023-04-15T00:51:07.184Z,4.80
2023-04-15T00:53:36.287Z,4.76
2023-04-15T00:56:03.920Z,4.75
2023-04-15T00:58:31.759Z,4.75
2023-04-15T01:00:59.920Z,4.75
2023-04-15T01:03:27.844Z,4.75
2023-04-15T01:05:58.332Z,4.77
2023-04-15T01:08:28.522Z,4.78
2023-04-15T01:10:58.556Z,4.76
2023-04-15T01:13:26.661Z,4.71
2023-04-15T01:15:54.592Z,4.70
2023-04-15T01:18:23.307Z,4.64
2023-04-15T01:20:51.035Z,4.60
2023-04-15T01:23:18.797Z,4.53
2023-04-15T01:25:47.992Z,4.52
2023-04-15T01:28:15.668Z,4.49
2023-04-15T01:30:43.421Z,4.50
2023-04-15T01:33:11.239Z,4.48
2023-04-15T01:35:41.507Z,4.45
2023-04-15T01:38:10.550Z,4.43
2023-04-15T01:40:38.620Z,4.41
2023-04-15T01:43:07.627Z,4.44
2023-04-15T01:45:35.289Z,4.45
2023-04-15T01:48:02.946Z,4.45
2023-04-15T01:50:30.638Z,4.45
2023-04-15T01:52:58.308Z,4.48
2023-04-15T01:55:26.244Z,4.45
2023-04-15T01:57:53.903Z,4.44
2023-04-15T02:00:23.251Z,4.44
2023-04-15T02:02:51.318Z,4.43
2023-04-15T02:05:19.078Z,4.42
2023-04-15T02:07:46.734Z,4.38
2023-04-15T02:10:14.448Z,4.38
2023-04-15T02:12:42.134Z,4.40
2023-04-15T02:15:11.208Z,4.41
2023-04-15T02:17:40.781Z,4.41
2023-04-15T02:20:10.644Z,4.40
2023-04-15T02:22:38.263Z,4.43
2023-04-15T02:25:07.071Z,4.40
2023-04-15T02:27:34.702Z,4.34
2023-04-15T02:30:02.373Z,4.32
2023-04-15T02:32:30.052Z,4.34
2023-04-15T02:35:03.821Z,4.35
2023-04-15T02:37:31.826Z,4.37
2023-04-15T02:39:59.963Z,4.39
2023-04-15T02:42:28.850Z,4.39
2023-04-15T02:44:57.256Z,4.41
2023-04-15T02:47:24.897Z,4.40
2023-04-15T02:49:53.379Z,4.40
2023-04-15T02:52:22.422Z,4.37
2023-04-15T02:54:50.069Z,4.34
2023-04-15T02:57:17.690Z,4.31
2023-04-15T02:59:45.420Z,4.29
2023-04-15T03:02:13.116Z,4.28
2023-04-15T03:04:40.935Z,4.28
2023-04-15T03:07:08.607Z,4.26
2023-04-15T03:09:39.758Z,4.23
2023-04-15T03:12:07.509Z,4.23
2023-04-15T03:14:35.161Z,4.22
2023-04-15T03:17:03.030Z,4.20
2023-04-15T03:19:30.703Z,4.19
2023-04-15T03:21:58.331Z,4.18
2023-04-15T03:24:26.137Z,4.19
2023-04-15T03:26:55.162Z,4.18
2023-04-15T03:29:22.819Z,4.18
2023-04-15T03:31:50.635Z,4.16
2023-04-15T03:34:18.276Z,4.14
2023-04-15T03:36:45.902Z,4.17
2023-04-15T03:39:13.658Z,4.19
2023-04-15T03:41:41.285Z,4.21
2023-04-15T03:44:10.419Z,4.22
2023-04-15T03:46:38.187Z,4.21
2023-04-15T03:49:07.432Z,4.20
2023-04-15T03:51:35.316Z,4.21
2023-04-15T03:54:03.292Z,4.21
2023-04-15T03:56:31.020Z,4.21
2023-04-15T03:58:58.938Z,4.19
2023-04-15T04:01:28.172Z,4.20
2023-04-15T04:03:56.074Z,4.20
2023-04-15T04:06:23.888Z,4.21
2023-04-15T04:08:51.555Z,4.19
2023-04-15T04:11:19.178Z,4.19
2023-04-15T04:13:46.929Z,4.18
2023-04-15T04:16:14.691Z,4.19
2023-04-15T04:18:44.164Z,4.18
2023-04-15T04:21:11.843Z,4.17
2023-04-15T04:23:39.515Z,4.17
2023-04-15T04:26:07.184Z,4.15
2023-04-15T04:28:36.410Z,4.11
2023-04-15T04:31:04.089Z,4.11
2023-04-15T04:33:31.728Z,4.11
2023-04-15T04:36:00.686Z,4.12
2023-04-15T04:38:28.343Z,4.11
2023-04-15T04:40:55.978Z,4.11
2023-04-15T04:43:23.769Z,4.12
2023-04-15T04:45:51.440Z,4.10
2023-04-15T04:48:19.905Z,4.06
2023-04-15T04:50:48.063Z,4.04
2023-04-15T04:53:18.112Z,4.09
2023-04-15T04:55:45.747Z,4.12
2023-04-15T04:58:13.346Z,4.16
2023-04-15T05:00:42.121Z,4.19
2023-04-15T05:03:10.037Z,4.18
2023-04-15T05:05:39.495Z,4.18
2023-04-15T05:08:07.159Z,4.20
2023-04-15T05:10:36.160Z,4.23
2023-04-15T05:13:03.872Z,4.25
2023-04-15T05:15:32.431Z,4.29
2023-04-15T05:18:00.092Z,4.31
2023-04-15T05:20:27.782Z,4.30
2023-04-15T05:22:55.555Z,4.28
2023-04-15T05:25:23.334Z,4.31
2023-04-15T05:27:52.653Z,4.31
2023-04-15T05:30:20.653Z,4.36
2023-04-15T05:32:48.354Z,4.39
2023-04-15T05:35:16.268Z,4.41
2023-04-15T05:37:43.976Z,4.43
2023-04-15T05:40:12.074Z,4.47
2023-04-15T05:42:39.729Z,4.49
2023-04-15T05:45:09.485Z,4.55
2023-04-15T05:47:37.376Z,4.58
2023-04-15T05:50:05.659Z,4.62
2023-04-15T05:52:33.411Z,4.68
2023-04-15T05:55:01.050Z,4.70
2023-04-15T05:57:28.677Z,4.71
2023-04-15T05:59:57.312Z,4.74
2023-04-15T06:02:26.657Z,4.73
2023-04-15T06:04:54.494Z,4.74
2023-04-15T06:07:22.163Z,4.73
2023-04-15T06:09:50.078Z,4.78
2023-04-15T06:12:17.742Z,4.80
2023-04-15T06:14:45.627Z,4.83
2023-04-15T06:17:14.967Z,4.90
2023-04-15T06:19:43.941Z,4.93
2023-04-15T06:22:11.606Z,4.98
2023-04-15T06:24:39.227Z,5.02
2023-04-15T06:27:07.083Z,5.07
2023-04-15T06:29:34.825Z,5.11
2023-04-15T06:32:02.452Z,5.15
2023-04-15T06:34:30.093Z,5.19
2023-04-15T06:36:59.087Z,5.19
2023-04-15T06:39:26.733Z,5.18
2023-04-15T06:41:54.340Z,5.20
2023-04-15T06:44:22.076Z,5.28
2023-04-15T06:46:49.994Z,5.29
2023-04-15T06:49:17.916Z,5.35
2023-04-15T06:51:45.535Z,5.36
2023-04-15T06:54:14.532Z,5.40
2023-04-15T06:56:42.140Z,5.45
2023-04-15T06:59:09.794Z,5.52
2023-04-15T07:01:37.506Z,5.58
2023-04-15T07:04:05.388Z,5.62
2023-04-15T07:06:33.835Z,5.68
2023-04-15T07:09:01.972Z,5.76
2023-04-15T07:11:31.088Z,5.81
2023-04-15T07:13:58.981Z,5.86
2023-04-15T07:16:28.646Z,5.89
2023-04-15T07:18:57.477Z,5.95
2023-04-15T07:21:25.272Z,6.03
2023-04-15T07:23:52.995Z,6.06
2023-04-15T07:26:20.631Z,6.10
2023-04-15T07:28:50.331Z,6.16
2023-04-15T07:31:18.042Z,6.23
2023-04-15T07:33:46.828Z,6.30
2023-04-15T07:36:15.383Z,6.41
2023-04-15T07:38:43.210Z,6.48
2023-04-15T07:41:10.911Z,6.63
2023-04-15T07:43:38.965Z,6.66
2023-04-15T07:46:07.984Z,6.84
2023-04-15T07:48:37.422Z,7.00
2023-04-15T07:51:05.598Z,7.16
2023-04-15T07:53:33.983Z,7.31
2023-04-15T07:56:01.646Z,7.49
2023-04-15T07:58:29.347Z,7.67
2023-04-15T08:00:57.054Z,7.85
2023-04-15T08:03:26.428Z,8.04
2023-04-15T08:05:54.326Z,8.21
2023-04-15T08:08:22.269Z,8.19
2023-04-15T08:10:52.487Z,8.10
2023-04-15T08:13:20.767Z,8.08
2023-04-15T08:15:55.274Z,8.26
2023-04-15T08:18:22.920Z,8.34
2023-04-15T08:20:52.159Z,8.34
2023-04-15T08:23:19.791Z,8.49
2023-04-15T08:25:47.461Z,8.67
2023-04-15T08:28:15.096Z,8.77
2023-04-15T08:30:42.800Z,8.91
2023-04-15T08:33:10.431Z,8.89
2023-04-15T08:35:38.073Z,8.95
2023-04-15T08:38:07.122Z,9.00
2023-04-15T08:40:42.112Z,8.98
2023-04-15T08:43:11.466Z,8.90
2023-04-15T08:45:40.454Z,9.12
2023-04-15T08:48:09.185Z,9.25
2023-04-15T08:50:37.002Z,9.15
2023-04-15T08:53:04.737Z,8.98
2023-04-15T08:55:35.904Z,8.92
2023-04-15T08:58:03.976Z,8.96
2023-04-15T09:00:32.465Z,9.05
2023-04-15T09:03:01.063Z,9.14
2023-04-15T09:05:28.896Z,9.08
2023-04-15T09:07:57.006Z,9.02
2023-04-15T09:10:24.912Z,9.07
2023-04-15T09:12:54.041Z,9.26
2023-04-15T09:15:21.909Z,9.35
2023-04-15T09:17:49.558Z,9.23
2023-04-15T09:20:18.737Z,8.86
2023-04-15T09:22:48.545Z,8.90
2023-04-15T09:25:34.309Z,8.98
2023-04-15T09:28:04.484Z,9.02
2023-04-15T09:30:32.313Z,9.09
2023-04-15T09:33:00.925Z,9.01
2023-04-15T09:35:29.120Z,9.09
2023-04-15T09:38:04.127Z,9.13
2023-04-15T09:40:36.051Z,9.05
2023-04-15T09:43:06.178Z,9.02
2023-04-15T09:45:34.859Z,8.98
2023-04-15T09:48:17.965Z,9.10
2023-04-15T09:50:45.854Z,9.02
2023-04-15T09:53:17.800Z,9.07
2023-04-15T09:55:46.849Z,9.16
2023-04-15T09:58:23.453Z,9.21
2023-04-15T10:00:52.240Z,9.22
2023-04-15T10:03:22.662Z,9.08
2023-04-15T10:05:52.044Z,9.16
2023-04-15T10:08:21.639Z,9.32
2023-04-15T10:10:49.921Z,9.32
2023-04-15T10:13:19.884Z,9.54
2023-04-15T10:15:51.925Z,9.70
2023-04-15T10:18:21.511Z,9.89
2023-04-15T10:20:49.788Z,9.90
2023-04-15T10:23:18.784Z,10.00
2023-04-15T10:25:47.184Z,10.22
2023-04-15T10:28:16.344Z,10.28
2023-04-15T10:30:44.463Z,10.34
2023-04-15T10:33:14.202Z,10.20
2023-04-15T10:35:42.017Z,9.91
2023-04-15T10:38:33.761Z,9.97
2023-04-15T10:41:19.540Z,10.01
2023-04-15T10:43:52.853Z,10.09
2023-04-15T10:46:22.989Z,10.26
2023-04-15T10:48:53.926Z,10.28
2023-04-15T10:51:29.494Z,10.16
2023-04-15T10:54:01.133Z,10.23
2023-04-15T10:56:30.842Z,10.28
2023-04-15T10:59:00.573Z,10.30
2023-04-15T11:01:53.169Z,10.49
2023-04-15T11:04:57.596Z,10.51
2023-04-15T11:07:49.918Z,10.73
2023-04-15T11:10:55.865Z,10.93
2023-04-15T11:13:27.210Z,10.84
2023-04-15T11:16:01.450Z,10.67
2023-04-15T11:18:31.870Z,10.77
2023-04-15T11:21:03.452Z,11.04
2023-04-15T11:23:34.057Z,11.32
2023-04-15T11:26:03.771Z,10.99
2023-04-15T11:28:32.475Z,11.11
2023-04-15T11:31:01.936Z,11.25
2023-04-15T11:33:29.693Z,11.21
2023-04-15T11:35:57.287Z,11.12
2023-04-15T11:38:26.288Z,10.98
2023-04-15T11:40:53.943Z,10.99
2023-04-15T11:43:22.824Z,10.92
2023-04-15T11:45:52.853Z,10.73
2023-04-15T11:48:21.423Z,10.56
2023-04-15T11:50:54.415Z,10.53
2023-04-15T11:53:22.165Z,10.07
2023-04-15T11:55:52.713Z,9.94
2023-04-15T11:58:21.999Z,10.02
2023-04-15T12:00:52.487Z,10.02
2023-04-15T12:03:25.311Z,9.80
2023-04-15T12:06:07.218Z,9.61
2023-04-15T12:09:04.653Z,9.44
2023-04-15T12:11:36.340Z,9.62
2023-04-15T12:14:06.293Z,9.59
2023-04-15T12:16:37.108Z,9.25
2023-04-15T12:19:14.200Z,9.04
2023-04-15T12:21:43.345Z,9.06
2023-04-15T12:24:12.399Z,9.13
2023-04-15T12:26:45.512Z,9.25
2023-04-15T12:29:14.540Z,9.12
2023-04-15T12:31:50.064Z,9.18
2023-04-15T12:34:18.096Z,9.15
2023-04-15T12:36:45.797Z,9.31
2023-04-15T12:39:14.269Z,9.52
2023-04-15T12:41:43.234Z,9.50
2023-04-15T12:44:10.962Z,9.55
2023-04-15T12:46:38.964Z,9.62
2023-04-15T12:49:06.639Z,9.76
2023-04-15T12:51:34.292Z,9.79
2023-04-15T12:54:02.035Z,9.80
2023-04-15T12:56:29.839Z,9.77
2023-04-15T12:58:58.845Z,9.70
2023-04-15T13:01:26.546Z,9.72
2023-04-15T13:03:54.297Z,9.73
2023-04-15T13:06:22.745Z,9.87
2023-04-15T13:08:58.303Z,9.81
2023-04-15T13:11:27.162Z,9.87
2023-04-15T13:13:54.916Z,9.97
2023-04-15T13:16:24.811Z,9.99
2023-04-15T13:18:52.498Z,10.11
2023-04-15T13:21:20.687Z,10.15
2023-04-15T13:23:50.000Z,10.26
2023-04-15T13:26:17.717Z,10.25
2023-04-15T13:28:45.755Z,10.23
2023-04-15T13:31:13.664Z,10.33
2023-04-15T13:33:42.811Z,10.29
2023-04-15T13:36:10.481Z,10.32
2023-04-15T13:38:38.116Z,10.46
2023-04-15T13:41:06.054Z,10.47
2023-04-15T13:43:34.332Z,10.48
2023-04-15T13:46:02.272Z,10.24
2023-04-15T13:48:30.121Z,10.01
2023-04-15T13:50:59.137Z,9.94
2023-04-15T13:53:38.473Z,10.06
2023-04-15T13:56:07.666Z,9.96
2023-04-15T13:58:35.395Z,9.92
2023-04-15T14:01:05.686Z,9.88
2023-04-15T14:03:34.385Z,9.82
2023-04-15T14:06:03.742Z,9.64
2023-04-15T14:08:31.602Z,9.51
2023-04-15T14:10:59.228Z,9.45
2023-04-15T14:13:26.973Z,9.50
2023-04-15T14:15:54.645Z,9.41
2023-04-15T14:18:22.271Z,9.54
2023-04-15T14:20:49.964Z,9.70
2023-04-15T14:23:18.956Z,9.71
2023-04-15T14:25:48.327Z,9.59
2023-04-15T14:28:16.415Z,9.37
2023-04-15T14:30:44.350Z,9.49
2023-04-15T14:33:12.030Z,9.49
2023-04-15T14:35:39.789Z,9.66
2023-04-15T14:38:10.688Z,9.43
2023-04-15T14:40:41.995Z,9.48
2023-04-15T14:43:09.745Z,9.55
2023-04-15T14:45:40.686Z,9.56
2023-04-15T14:48:12.696Z,9.51
2023-04-15T14:50:40.690Z,9.51
2023-04-15T14:53:08.376Z,9.62
2023-04-15T14:55:35.951Z,9.73
2023-04-15T14:58:05.011Z,9.78
2023-04-15T15:00:32.755Z,9.70
2023-04-15T15:03:00.591Z,9.73
2023-04-15T15:05:28.574Z,9.50
2023-04-15T15:07:56.325Z,9.61
2023-04-15T15:10:32.141Z,9.66
2023-04-15T15:13:13.077Z,9.62
2023-04-15T15:15:41.053Z,9.70
2023-04-15T15:18:08.803Z,9.42
2023-04-15T15:20:36.513Z,9.30
2023-04-15T15:23:04.187Z,8.78
2023-04-15T15:25:31.863Z,8.81
2023-04-15T15:27:59.543Z,8.71
2023-04-15T15:30:28.527Z,8.34
2023-04-15T15:32:56.220Z,8.28
2023-04-15T15:35:23.941Z,7.90
2023-04-15T15:37:51.668Z,7.64
2023-04-15T15:40:19.549Z,7.68
2023-04-15T15:42:49.844Z,7.50
2023-04-15T15:45:18.045Z,7.45
2023-04-15T15:47:47.082Z,7.26
2023-04-15T15:50:15.422Z,7.11
2023-04-15T15:52:43.104Z,7.08
2023-04-15T15:55:11.227Z,7.09
2023-04-15T15:57:38.833Z,6.87
2023-04-15T16:00:11.945Z,6.75
2023-04-15T16:05:12.570Z,6.81
2023-04-15T16:07:40.261Z,6.99
2023-04-15T16:10:09.049Z,7.10
2023-04-15T16:12:36.693Z,7.14
2023-04-15T16:15:04.835Z,7.19
2023-04-15T16:17:32.521Z,7.24
2023-04-15T16:20:01.203Z,7.33
2023-04-15T16:22:30.856Z,7.38
2023-04-15T16:24:59.802Z,7.39
2023-04-15T16:27:27.520Z,7.37
2023-04-15T16:29:55.323Z,7.39
2023-04-15T16:32:23.108Z,7.37
2023-04-15T16:34:50.855Z,7.35
2023-04-15T16:37:18.495Z,7.28
2023-04-15T16:39:47.487Z,7.28
2023-04-15T16:42:15.124Z,7.27
2023-04-15T16:44:42.741Z,7.18
2023-04-15T16:47:11.934Z,7.20
2023-04-15T16:49:39.692Z,7.17
2023-04-15T16:52:07.352Z,7.18
2023-04-15T16:54:37.773Z,7.19
2023-04-15T16:57:06.781Z,7.16
2023-04-15T16:59:34.497Z,7.15
2023-04-15T17:02:02.206Z,7.12
2023-04-15T17:04:30.045Z,7.14
2023-04-15T17:06:57.882Z,7.16
2023-04-15T17:09:25.637Z,7.15
2023-04-15T17:11:53.225Z,7.16
2023-04-15T17:14:22.237Z,7.17
2023-04-15T17:16:49.845Z,7.17
2023-04-15T17:19:17.536Z,7.19
2023-04-15T17:21:45.292Z,7.17
2023-04-15T17:24:12.949Z,7.08
2023-04-15T17:26:41.124Z,7.08
2023-04-15T17:29:08.779Z,7.03
2023-04-15T17:31:37.838Z,6.98
2023-04-15T17:34:09.474Z,6.96
2023-04-15T17:36:38.518Z,6.94
2023-04-15T17:39:06.403Z,6.90
2023-04-15T17:41:34.313Z,6.93
2023-04-15T17:44:02.000Z,6.88
2023-04-15T17:46:31.856Z,6.83
2023-04-15T17:49:00.899Z,6.81
2023-04-15T17:51:28.491Z,6.72
2023-04-15T17:53:56.185Z,6.68
2023-04-15T17:56:23.954Z,6.71
2023-04-15T17:58:53.077Z,6.69
2023-04-15T18:01:22.364Z,6.56
2023-04-15T18:03:50.544Z,6.53
2023-04-15T18:06:21.330Z,6.45
2023-04-15T18:08:49.049Z,6.35
2023-04-15T18:11:17.563Z,6.26
2023-04-15T18:13:45.631Z,6.12
2023-04-15T18:16:13.358Z,6.09
2023-04-15T18:18:41.007Z,5.89
2023-04-15T18:21:08.645Z,5.80
2023-04-15T18:23:38.891Z,5.80
2023-04-15T18:26:06.715Z,5.78
2023-04-15T18:28:34.337Z,5.77
2023-04-15T18:31:03.432Z,5.76
2023-04-15T18:33:31.176Z,5.72
2023-04-15T18:35:58.939Z,5.72
2023-04-15T18:38:26.713Z,5.73
2023-04-15T18:40:55.745Z,5.73
2023-04-15T18:43:23.416Z,5.79
2023-04-15T18:45:52.447Z,5.77
2023-04-15T18:48:20.118Z,5.79
2023-04-15T18:50:48.064Z,5.81
2023-04-15T18:53:15.782Z,5.84
2023-04-15T18:55:43.424Z,5.80
2023-04-15T18:58:12.468Z,5.79
2023-04-15T19:00:41.739Z,5.79
2023-04-15T19:03:09.576Z,5.77
2023-04-15T19:05:37.333Z,5.78
2023-04-15T19:08:05.004Z,5.79
2023-04-15T19:10:33.095Z,5.78
2023-04-15T19:13:00.752Z,5.85
2023-04-15T19:15:29.781Z,5.87
2023-04-15T19:17:57.453Z,5.85
2023-04-15T19:20:25.127Z,5.86
2023-04-15T19:22:52.815Z,5.87
2023-04-15T19:25:20.597Z,5.93
2023-04-15T19:27:48.363Z,5.93
2023-04-15T19:30:16.490Z,5.96
2023-04-15T19:32:45.545Z,6.00
2023-04-15T19:35:13.198Z,5.97
2023-04-15T19:37:41.505Z,5.96
2023-04-15T19:40:10.474Z,6.00
2023-04-15T19:42:38.128Z,6.00
2023-04-15T19:45:06.612Z,5.98
2023-04-15T19:47:34.730Z,5.88
2023-04-15T19:50:06.077Z,5.92
2023-04-15T19:52:34.080Z,5.94
2023-04-15T19:55:01.716Z,5.91
2023-04-15T19:57:29.395Z,5.89
2023-04-15T19:59:57.069Z,5.93
2023-04-15T20:02:24.921Z,5.93
2023-04-15T20:04:52.676Z,5.91
2023-04-15T20:07:21.648Z,5.93
2023-04-15T20:09:50.122Z,5.82
2023-04-15T20:12:49.256Z,5.84
2023-04-15T20:15:06.429Z,5.88
2023-04-15T20:17:34.094Z,5.88
2023-04-15T20:20:01.797Z,5.76
2023-04-15T20:22:30.781Z,5.74
2023-04-15T20:24:58.470Z,5.73
2023-04-15T20:27:26.109Z,5.78
2023-04-15T20:29:53.762Z,5.80
2023-04-15T20:32:21.757Z,5.80
2023-04-15T20:34:49.377Z,5.77
2023-04-15T20:37:17.697Z,5.75
2023-04-15T20:39:46.719Z,5.65
2023-04-15T20:42:14.373Z,5.64
2023-04-15T20:44:42.031Z,5.57
2023-04-15T20:47:10.040Z,5.57
2023-04-15T20:49:41.966Z,5.58
2023-04-15T20:52:13.680Z,5.52
2023-04-15T20:54:42.710Z,5.45
2023-04-15T20:57:30.741Z,5.43
2023-04-15T21:00:15.408Z,5.51
2023-04-15T21:02:47.471Z,5.57
2023-04-15T21:05:15.557Z,5.55
2023-04-15T21:10:36.485Z,5.50
2023-04-15T21:13:06.938Z,5.52
2023-04-15T21:15:35.944Z,5.47
2023-04-15T21:18:03.550Z,5.49
2023-04-15T21:20:31.186Z,5.44
2023-04-15T21:22:58.828Z,5.44
2023-04-15T21:25:26.455Z,5.42
2023-04-15T21:27:54.032Z,5.43
2023-04-15T21:30:23.762Z,5.36
2023-04-15T21:32:51.491Z,5.35
2023-04-15T21:35:19.360Z,5.27
2023-04-15T21:37:46.999Z,5.26
2023-04-15T21:40:15.996Z,5.22
2023-04-15T21:42:43.632Z,5.22
2023-04-15T21:45:12.351Z,5.18
2023-04-15T21:47:57.454Z,5.17
2023-04-15T21:50:29.103Z,5.14
2023-04-15T21:52:56.731Z,5.14
2023-04-15T21:55:24.924Z,5.12
2023-04-15T21:57:52.570Z,5.10
2023-04-15T22:00:21.288Z,5.09
2023-04-15T22:02:50.489Z,5.09
2023-04-15T22:05:18.424Z,5.02
2023-04-15T22:07:46.234Z,4.97
2023-04-15T22:10:14.118Z,4.93
2023-04-15T22:12:42.165Z,4.94
2023-04-15T22:15:10.471Z,4.97
2023-04-15T22:17:38.200Z,4.93
2023-04-15T22:20:08.959Z,4.80
2023-04-15T22:22:44.065Z,4.80
2023-04-15T22:25:12.514Z,4.79
2023-04-15T22:27:40.233Z,4.81
2023-04-15T22:30:09.244Z,4.83
2023-04-15T22:32:36.945Z,4.85
2023-04-15T22:35:06.492Z,4.85
2023-04-15T22:37:35.805Z,4.82
2023-04-15T22:40:03.733Z,4.80
2023-04-15T22:42:31.388Z,4.78
2023-04-15T22:44:59.504Z,4.79
2023-04-15T22:47:27.427Z,4.70
2023-04-15T22:49:55.136Z,4.71
2023-04-15T22:52:29.907Z,4.70
2023-04-15T22:55:00.226Z,4.67
2023-04-15T22:57:28.751Z,4.71
2023-04-15T22:59:56.549Z,4.74
2023-04-15T23:02:24.415Z,4.73
2023-04-15T23:04:52.297Z,4.73
2023-04-15T23:07:19.958Z,4.73
2023-04-15T23:09:47.583Z,4.66
2023-04-15T23:12:16.573Z,4.66
2023-04-15T23:14:44.222Z,4.63
2023-04-15T23:17:11.864Z,4.63
2023-04-15T23:19:39.547Z,4.62
2023-04-15T23:22:10.461Z,4.55
2023-04-15T23:24:38.168Z,4.50
2023-04-15T23:27:05.930Z,4.44
2023-04-15T23:29:34.956Z,4.41
2023-04-15T23:32:02.721Z,4.41
2023-04-15T23:34:30.495Z,4.41
2023-04-15T23:36:58.155Z,4.42
2023-04-15T23:39:25.923Z,4.47
2023-04-15T23:41:53.859Z,4.43
2023-04-15T23:44:21.480Z,4.41
2023-04-15T23:46:51.262Z,4.38
2023-04-15T23:49:20.381Z,4.40
2023-04-15T23:51:48.420Z,4.47
2023-04-15T23:54:16.168Z,4.51
2023-04-15T23:56:43.821Z,4.51
2023-04-15T23:59:11.699Z,4.55
